Time;durP1;ratioP1;P1;durP2;ratioP2;P2;SDS_P1;SDS_P2;PMS_P1;PMS_P2;Temp;Humidity;BMP_temperature;BMP_pressure;BME280_temperature;BME280_humidity;BME280_pressure;Samples;Min_cycle;Max_cycle;Signal;HPM_P1;HPM_P2
2022/06/22 00:01:06;;;;;;;6.67;6.23;;;19.50;98.40;;;;;;5115975;28;20764;-68
2022/06/22 00:03:34;;;;;;;6.80;6.40;;;19.50;98.60;;;;;;5114110;28;20766;-68
2022/06/22 00:06:03;;;;;;;7.67;6.97;;;19.50;98.60;;;;;;5113801;28;20929;-68
2022/06/22 00:08:36;;;;;;;6.70;6.30;;;19.50;98.40;;;;;;5115155;28;20422;-68
2022/06/22 00:11:12;;;;;;;7.40;6.87;;;19.40;98.30;;;;;;5115911;28;20405;-68
2022/06/22 00:13:46;;;;;;;6.90;6.50;;;19.40;98.20;;;;;;5115082;28;20467;-68
2022/06/22 00:16:25;;;;;;;6.43;5.87;;;19.30;98.10;;;;;;5113542;28;20460;-68
2022/06/22 00:18:52;;;;;;;6.90;6.40;;;19.10;98.10;;;;;;5115354;28;20423;-68
2022/06/22 00:21:20;;;;;;;7.70;7.10;;;19.10;98.30;;;;;;5114541;27;20532;-68
2022/06/22 00:23:49;;;;;;;6.13;5.63;;;19.00;98.70;;;;;;5114805;28;20604;-68
2022/06/22 00:26:23;;;;;;;5.50;5.20;;;19.00;99.30;;;;;;5114277;28;20777;-68
2022/06/22 00:29:04;;;;;;;5.30;4.90;;;19.00;99.40;;;;;;5113925;28;20439;-68
2022/06/22 00:31:30;;;;;;;7.10;6.37;;;19.00;99.20;;;;;;5112408;28;20405;-68
2022/06/22 00:34:11;;;;;;;6.70;5.53;;;18.80;98.60;;;;;;5115305;28;20453;-68
2022/06/22 00:37:04;;;;;;;6.63;6.13;;;18.80;98.90;;;;;;5110606;28;20187;-68
2022/06/22 00:39:30;;;;;;;6.33;5.87;;;18.80;99.90;;;;;;5093049;28;20882;-70
2022/06/22 00:42:21;;;;;;;6.97;6.37;;;18.80;99.90;;;;;;5093932;28;20427;-68
2022/06/22 00:45:12;;;;;;;6.93;6.43;;;18.80;99.90;;;;;;5094126;28;20769;-68
2022/06/22 00:47:55;;;;;;;9.13;6.23;;;18.70;99.60;;;;;;5122426;27;20436;-68
2022/06/22 00:50:50;;;;;;;7.37;6.87;;;18.70;99.30;;;;;;5135626;27;20424;-68
2022/06/22 00:53:45;;;;;;;6.77;6.27;;;18.70;99.50;;;;;;5102789;27;20456;-68
2022/06/22 00:56:34;;;;;;;7.10;6.50;;;18.60;99.50;;;;;;5131878;27;20465;-68
2022/06/22 00:59:30;;;;;;;6.83;5.83;;;18.50;99.50;;;;;;5114199;28;20873;-68
2022/06/22 01:02:11;;;;;;;7.07;6.33;;;18.50;99.90;;;;;;5112799;28;20434;-68
2022/06/22 01:05:05;;;;;;;6.73;6.33;;;18.50;99.90;;;;;;5112915;28;20434;-68
2022/06/22 01:07:34;;;;;;;6.00;5.60;;;18.50;99.90;;;;;;5114234;28;20398;-70
2022/06/22 01:10:18;;;;;;;6.30;5.90;;;18.60;99.90;;;;;;5114648;28;20416;-68
2022/06/22 01:13:40;;;;;;;6.40;5.90;;;18.50;99.90;;;;;;5113745;28;20456;-68
2022/06/22 01:16:22;;;;;;;6.67;6.07;;;18.50;99.90;;;;;;5067736;28;20858;-68
2022/06/22 01:18:59;;;;;;;6.23;5.80;;;18.40;99.90;;;;;;5113851;28;20414;-68
2022/06/22 01:21:35;;;;;;;6.20;5.80;;;18.50;99.90;;;;;;5113208;28;20902;-68
2022/06/22 01:24:34;;;;;;;5.67;5.27;;;18.50;99.90;;;;;;5094038;28;20421;-68
2022/06/22 01:27:21;;;;;;;5.77;5.27;;;18.40;99.90;;;;;;5103388;27;20416;-68
2022/06/22 01:29:53;;;;;;;6.60;6.10;;;18.40;99.90;;;;;;5127583;27;20421;-68
2022/06/22 01:32:28;;;;;;;6.13;5.63;;;18.40;99.90;;;;;;5114338;28;20433;-68
2022/06/22 01:34:57;;;;;;;6.30;5.90;;;18.30;99.90;;;;;;5106672;28;20459;-68
2022/06/22 01:37:32;;;;;;;6.00;5.50;;;18.30;99.90;;;;;;5093682;28;20398;-68
2022/06/22 01:40:20;;;;;;;6.87;6.50;;;18.20;99.90;;;;;;5093167;28;20876;-68
2022/06/22 01:43:07;;;;;;;7.07;6.47;;;18.20;99.90;;;;;;5093170;28;20727;-68
2022/06/22 01:45:36;;;;;;;6.17;5.77;;;18.20;99.90;;;;;;5106576;28;20429;-70
2022/06/22 01:48:20;;;;;;;7.70;6.00;;;18.20;99.90;;;;;;5113567;28;20778;-68
2022/06/22 01:50:59;;;;;;;5.77;5.37;;;18.20;99.90;;;;;;5113163;28;20402;-68
2022/06/22 01:53:42;;;;;;;6.83;6.23;;;18.10;99.90;;;;;;5112501;28;20581;-68
2022/06/22 01:56:28;;;;;;;6.10;5.60;;;18.10;99.90;;;;;;5112599;27;20433;-68
2022/06/22 01:59:09;;;;;;;7.60;5.30;;;18.10;99.90;;;;;;5112038;28;20436;-68
2022/06/22 02:02:15;;;;;;;6.50;6.00;;;18.10;99.90;;;;;;5112870;28;20747;-70
2022/06/22 02:05:08;;;;;;;6.97;5.90;;;18.00;99.90;;;;;;5060979;28;20433;-68
2022/06/22 02:07:46;;;;;;;6.13;5.57;;;18.00;99.90;;;;;;5112923;28;20433;-70
2022/06/22 02:10:39;;;;;;;6.23;5.83;;;18.00;99.90;;;;;;5113286;28;20405;-68
2022/06/22 02:13:49;;;;;;;6.23;5.83;;;18.00;99.90;;;;;;5126652;27;20814;-68
2022/06/22 02:16:31;;;;;;;7.40;6.80;;;17.90;99.90;;;;;;5107733;28;20441;-68
2022/06/22 02:18:57;;;;;;;6.47;6.03;;;17.90;99.90;;;;;;5117599;27;20940;-68
2022/06/22 02:21:49;;;;;;;7.20;6.70;;;17.90;99.90;;;;;;5111753;28;20479;-67
2022/06/22 02:24:33;;;;;;;6.40;6.00;;;17.90;99.90;;;;;;5112748;28;20186;-68
2022/06/22 02:27:13;;;;;;;7.83;6.57;;;17.90;99.90;;;;;;5113084;28;20412;-68
2022/06/22 02:29:51;;;;;;;7.93;7.17;;;17.80;99.90;;;;;;5112432;28;20397;-68
2022/06/22 02:32:39;;;;;;;7.77;6.97;;;17.70;99.90;;;;;;5112265;28;20486;-68
2022/06/22 02:35:08;;;;;;;7.43;6.83;;;17.70;99.90;;;;;;5112245;28;20429;-68
2022/06/22 02:37:42;;;;;;;7.30;6.80;;;17.70;99.90;;;;;;5111946;27;20421;-69
2022/06/22 02:40:14;;;;;;;7.80;7.20;;;17.80;99.90;;;;;;5113256;28;20401;-68
2022/06/22 02:45:25;;;;;;;8.83;7.93;;;17.70;99.90;;;;;;5117554;27;20422;-68
2022/06/22 02:47:59;;;;;;;7.93;7.37;;;17.70;99.90;;;;;;5112047;28;20451;-68
2022/06/22 02:50:43;;;;;;;6.93;6.43;;;17.70;99.90;;;;;;5111897;28;20440;-68
2022/06/22 02:53:33;;;;;;;8.20;7.40;;;17.70;99.90;;;;;;5112979;28;20445;-68
2022/06/22 02:56:02;;;;;;;7.47;6.97;;;17.60;99.90;;;;;;5104101;28;20430;-68
2022/06/22 02:58:32;;;;;;;7.77;7.10;;;17.60;99.90;;;;;;5112852;28;21025;-68
2022/06/22 03:01:33;;;;;;;7.50;7.00;;;17.60;99.90;;;;;;5111479;28;20414;-68
2022/06/22 03:04:04;;;;;;;7.00;6.50;;;17.50;99.90;;;;;;5084245;28;20437;-68
2022/06/22 03:06:33;;;;;;;8.00;7.30;;;17.50;99.90;;;;;;5111792;28;20428;-68
2022/06/22 03:09:02;;;;;;;7.70;7.10;;;17.40;99.90;;;;;;5132411;28;21317;-70
2022/06/22 03:11:28;;;;;;;7.40;6.70;;;17.40;99.90;;;;;;5133175;28;20409;-70
2022/06/22 03:14:21;;;;;;;9.80;6.80;;;17.40;99.90;;;;;;5120573;28;20450;-70
2022/06/22 03:17:13;;;;;;;7.10;6.60;;;17.30;99.90;;;;;;5109795;28;20186;-70
2022/06/22 03:19:56;;;;;;;6.80;6.20;;;17.20;99.90;;;;;;5105343;28;20917;-71
2022/06/22 03:22:27;;;;;;;8.10;7.40;;;17.10;99.90;;;;;;5116142;28;20429;-70
2022/06/22 03:25:31;;;;;;;7.70;7.10;;;17.00;99.90;;;;;;5114780;28;20442;-70
2022/06/22 03:28:04;;;;;;;7.80;7.17;;;17.00;99.90;;;;;;5052766;28;20420;-70
2022/06/22 03:30:35;;;;;;;8.10;7.50;;;17.10;99.90;;;;;;5106237;28;20436;-70
2022/06/22 03:33:12;;;;;;;7.17;6.60;;;17.10;99.90;;;;;;5115088;28;20486;-70
2022/06/22 03:35:43;;;;;;;6.87;6.47;;;17.10;99.90;;;;;;5115040;28;20561;-73
2022/06/22 03:38:15;;;;;;;7.73;7.10;;;17.20;99.90;;;;;;5117019;28;20389;-69
2022/06/22 03:40:47;;;;;;;8.90;8.30;;;17.20;99.90;;;;;;5115750;28;20723;-70
2022/06/22 03:43:18;;;;;;;5.83;5.30;;;17.20;99.90;;;;;;5115530;28;20777;-69
2022/06/22 03:45:53;;;;;;;10.30;9.67;;;17.20;99.90;;;;;;5104044;28;20490;-69
2022/06/22 03:48:31;;;;;;;10.00;9.20;;;17.10;99.90;;;;;;5115394;27;20433;-68
2022/06/22 03:51:04;;;;;;;7.50;6.90;;;17.10;99.90;;;;;;5115515;28;20440;-69
2022/06/22 03:53:44;;;;;;;11.30;10.60;;;17.20;99.90;;;;;;5133939;27;20471;-68
2022/06/22 03:56:17;;;;;;;9.00;8.47;;;17.20;99.90;;;;;;5103816;28;20520;-69
2022/06/22 03:58:45;;;;;;;8.37;7.53;;;17.20;99.90;;;;;;5134071;27;20432;-69
2022/06/22 04:01:12;;;;;;;10.83;10.00;;;17.20;99.90;;;;;;5127535;27;20967;-68
2022/06/22 04:03:39;;;;;;;10.53;9.83;;;17.10;99.90;;;;;;5114472;28;20425;-69
2022/06/22 04:06:05;;;;;;;8.77;8.00;;;17.10;99.90;;;;;;5115781;28;20421;-69
2022/06/22 04:08:34;;;;;;;7.27;6.47;;;17.10;99.90;;;;;;5115895;28;20495;-68
2022/06/22 04:11:25;;;;;;;9.17;8.37;;;17.10;99.90;;;;;;5114750;28;20405;-68
2022/06/22 04:13:58;;;;;;;8.17;7.47;;;17.20;99.90;;;;;;5113776;28;20453;-69
2022/06/22 04:16:33;;;;;;;8.10;7.60;;;17.20;99.90;;;;;;5115516;27;20436;-69
2022/06/22 04:19:09;;;;;;;8.67;7.90;;;17.30;99.90;;;;;;5114573;28;21212;-69
2022/06/22 04:21:48;;;;;;;12.90;11.83;;;17.20;99.90;;;;;;5114352;28;20979;-69
2022/06/22 04:24:21;;;;;;;10.43;9.50;;;17.30;99.90;;;;;;5119305;27;20524;-68
2022/06/22 04:27:01;;;;;;;8.40;7.73;;;17.30;99.90;;;;;;5113942;28;20433;-68
2022/06/22 04:29:35;;;;;;;10.70;9.90;;;17.20;99.90;;;;;;5115426;28;20408;-69
2022/06/22 04:32:14;;;;;;;8.23;7.50;;;17.10;99.90;;;;;;5114383;28;20489;-68
2022/06/22 04:35:02;;;;;;;10.97;9.87;;;17.10;99.90;;;;;;5111901;27;20514;-69
2022/06/22 04:37:41;;;;;;;9.17;8.47;;;17.10;99.90;;;;;;5115885;27;20459;-68
2022/06/22 04:40:14;;;;;;;8.10;7.50;;;17.20;99.90;;;;;;5114810;28;20397;-68
2022/06/22 04:42:39;;;;;;;7.27;6.70;;;17.20;99.90;;;;;;5124001;27;20941;-69
2022/06/22 04:45:06;;;;;;;7.20;6.70;;;17.30;99.90;;;;;;5112766;27;20512;-69
2022/06/22 04:47:34;;;;;;;7.90;7.40;;;17.50;99.90;;;;;;5118757;27;20498;-68
2022/06/22 04:50:11;;;;;;;7.73;6.83;;;17.50;99.90;;;;;;5113012;28;20414;-68
2022/06/22 04:52:42;;;;;;;20.77;17.27;;;17.50;99.90;;;;;;5112166;28;20540;-69
2022/06/22 04:55:14;;;;;;;10.50;9.20;;;17.50;99.90;;;;;;5094271;28;20448;-69
2022/06/22 04:57:44;;;;;;;10.40;9.03;;;17.50;99.90;;;;;;5093441;28;20503;-68
2022/06/22 05:00:26;;;;;;;6.90;6.40;;;17.50;99.90;;;;;;5110110;27;20406;-69
2022/06/22 05:03:05;;;;;;;8.33;7.70;;;17.60;99.90;;;;;;5114464;27;20429;-69
2022/06/22 05:05:34;;;;;;;7.37;6.77;;;17.60;99.90;;;;;;5134023;27;20424;-68
2022/06/22 05:08:26;;;;;;;8.87;7.97;;;17.60;99.90;;;;;;5129870;27;20503;-68
2022/06/22 05:10:57;;;;;;;7.73;7.03;;;17.70;99.90;;;;;;5115805;27;20406;-68
2022/06/22 05:13:42;;;;;;;10.13;9.53;;;17.70;99.90;;;;;;5113978;28;20502;-68
2022/06/22 05:16:14;;;;;;;9.13;8.30;;;17.80;99.90;;;;;;5113132;28;20478;-68
2022/06/22 05:18:42;;;;;;;7.70;7.03;;;17.80;99.90;;;;;;5130207;27;20523;-68
2022/06/22 05:21:18;;;;;;;9.07;7.03;;;17.80;99.90;;;;;;5135327;27;20513;-68
2022/06/22 05:23:50;;;;;;;7.60;7.00;;;17.90;99.90;;;;;;5133509;27;20427;-69
2022/06/22 05:26:18;;;;;;;8.40;7.80;;;18.00;99.90;;;;;;5125908;27;20445;-69
2022/06/22 05:28:51;;;;;;;9.10;8.40;;;18.00;99.90;;;;;;5112744;27;20424;-70
2022/06/22 05:31:23;;;;;;;8.07;7.43;;;18.10;99.90;;;;;;5114272;27;20424;-68
2022/06/22 05:33:52;;;;;;;9.10;8.20;;;18.10;99.90;;;;;;5132560;27;20583;-69
2022/06/22 05:36:23;;;;;;;8.53;7.70;;;18.20;99.90;;;;;;5133493;27;20429;-68
2022/06/22 05:38:53;;;;;;;8.37;7.57;;;18.20;99.90;;;;;;5115864;27;20417;-69
2022/06/22 05:41:29;;;;;;;10.73;9.53;;;18.30;99.90;;;;;;5131016;27;20421;-68
2022/06/22 05:43:58;;;;;;;10.63;9.63;;;18.40;99.90;;;;;;5133137;27;20393;-68
2022/06/22 05:46:25;;;;;;;9.50;8.60;;;18.40;99.90;;;;;;5132096;27;20410;-69
2022/06/22 05:48:55;;;;;;;12.13;11.03;;;18.50;99.90;;;;;;5112105;27;20465;-69
2022/06/22 05:51:56;;;;;;;11.13;10.00;;;18.60;99.90;;;;;;5119953;27;20425;-68
2022/06/22 05:54:33;;;;;;;9.70;8.80;;;18.70;99.90;;;;;;5098940;27;20440;-68
2022/06/22 05:57:17;;;;;;;8.80;8.07;;;18.80;99.90;;;;;;5111610;27;20488;-68
2022/06/22 05:59:55;;;;;;;11.40;10.30;;;19.20;99.90;;;;;;5113747;28;20756;-68
2022/06/22 06:02:38;;;;;;;13.20;11.90;;;19.50;99.90;;;;;;5113841;28;20425;-68
2022/06/22 06:05:14;;;;;;;13.70;12.50;;;19.80;99.50;;;;;;5117200;27;20477;-68
2022/06/22 06:07:46;;;;;;;14.47;13.27;;;20.00;97.70;;;;;;5099618;28;20428;-69
2022/06/22 06:10:34;;;;;;;14.70;11.90;;;20.10;96.90;;;;;;5102787;27;20566;-68
2022/06/22 06:13:30;;;;;;;10.33;9.40;;;20.20;96.20;;;;;;5101501;28;20445;-72
2022/06/22 06:16:00;;;;;;;9.10;8.30;;;20.00;96.10;;;;;;5092564;28;20438;-70
2022/06/22 06:18:37;;;;;;;9.30;8.40;;;19.80;96.00;;;;;;5119650;27;20830;-69
2022/06/22 06:21:16;;;;;;;9.13;8.23;;;19.50;96.60;;;;;;5101182;28;20549;-74
2022/06/22 06:24:00;;;;;;;11.10;7.80;;;19.30;97.10;;;;;;5109353;28;20464;-74
2022/06/22 06:29:49;;;;;;;9.20;8.37;;;19.30;98.10;;;;;;5099279;27;20431;-71
2022/06/22 06:32:31;;;;;;;9.87;9.03;;;19.20;98.20;;;;;;5129211;27;20520;-71
2022/06/22 06:35:15;;;;;;;11.50;10.43;;;19.20;98.70;;;;;;5112504;28;20422;-71
2022/06/22 06:38:00;;;;;;;11.60;10.63;;;19.00;98.50;;;;;;5121761;27;20453;-72
2022/06/22 06:40:53;;;;;;;12.57;11.57;;;19.00;99.30;;;;;;5098966;27;20913;-69
2022/06/22 06:43:37;;;;;;;9.57;8.50;;;19.00;99.00;;;;;;5112139;27;20494;-72
2022/06/22 06:46:18;;;;;;;8.67;7.97;;;19.00;99.80;;;;;;5111584;27;20439;-71
2022/06/22 06:48:50;;;;;;;11.47;10.67;;;18.90;99.30;;;;;;5106957;27;20482;-71
2022/06/22 06:51:20;;;;;;;9.13;8.20;;;19.00;99.90;;;;;;5116247;27;20429;-71
2022/06/22 06:53:57;;;;;;;8.60;7.83;;;19.10;99.90;;;;;;5107554;27;20485;-71
2022/06/22 06:56:32;;;;;;;8.30;7.60;;;19.20;99.90;;;;;;5112524;27;20516;-71
2022/06/22 06:59:05;;;;;;;8.40;7.67;;;19.30;99.90;;;;;;5110623;28;20916;-71
2022/06/22 07:01:35;;;;;;;8.23;7.03;;;19.40;99.90;;;;;;5112756;28;20831;-71
2022/06/22 07:04:10;;;;;;;7.90;7.23;;;19.50;99.90;;;;;;5112239;28;20413;-71
2022/06/22 07:06:37;;;;;;;8.77;8.17;;;19.70;99.00;;;;;;5110350;28;20477;-71
2022/06/22 07:09:31;;;;;;;10.03;8.27;;;19.80;97.70;;;;;;5110776;28;20435;-72
2022/06/22 07:12:04;;;;;;;12.20;6.63;;;19.80;97.50;;;;;;5101325;28;20520;-71
2022/06/22 07:14:37;;;;;;;7.00;6.40;;;20.00;98.30;;;;;;5098007;28;20449;-71
2022/06/22 07:17:10;;;;;;;6.97;6.37;;;20.20;98.70;;;;;;5109017;28;20425;-71
2022/06/22 07:19:38;;;;;;;6.70;6.20;;;20.30;98.90;;;;;;5098437;28;20430;-71
2022/06/22 07:22:20;;;;;;;6.87;6.27;;;20.50;97.40;;;;;;5115831;28;20469;-71
2022/06/22 07:25:06;;;;;;;8.60;8.10;;;20.60;96.90;;;;;;5106630;28;20780;-71
2022/06/22 07:27:44;;;;;;;6.93;5.57;;;20.80;96.00;;;;;;5119399;28;20855;-71
2022/06/22 07:30:33;;;;;;;6.83;5.67;;;20.80;95.00;;;;;;5126546;28;20428;-71
2022/06/22 07:33:17;;;;;;;7.63;7.03;;;21.00;94.20;;;;;;5124327;27;20862;-70
2022/06/22 07:35:49;;;;;;;6.67;6.20;;;21.00;94.50;;;;;;5116501;28;20436;-70
2022/06/22 07:38:36;;;;;;;6.10;5.57;;;20.90;93.70;;;;;;5121286;28;20465;-71
2022/06/22 07:41:22;;;;;;;8.00;7.30;;;21.00;94.90;;;;;;5125392;28;20439;-71
2022/06/22 07:43:58;;;;;;;10.03;8.20;;;21.30;95.90;;;;;;5121331;28;20962;-71
2022/06/22 07:46:29;;;;;;;6.77;6.17;;;21.50;95.50;;;;;;5121184;28;20456;-71
2022/06/22 07:49:01;;;;;;;7.17;6.53;;;21.70;95.90;;;;;;5128012;28;20497;-71
2022/06/22 07:51:29;;;;;;;9.07;7.00;;;21.90;95.00;;;;;;5125288;28;20454;-71
2022/06/22 07:54:20;;;;;;;7.20;6.50;;;22.00;94.80;;;;;;5122451;27;20468;-71
2022/06/22 07:57:01;;;;;;;9.27;7.30;;;22.20;94.60;;;;;;5131344;28;20481;-71
2022/06/22 07:59:32;;;;;;;8.77;7.03;;;22.40;94.00;;;;;;5127172;28;20438;-71
2022/06/22 08:02:02;;;;;;;7.20;6.50;;;22.50;92.50;;;;;;5124612;28;20436;-71
2022/06/22 08:04:39;;;;;;;7.00;6.60;;;22.60;92.70;;;;;;5123404;28;20436;-71
2022/06/22 08:07:51;;;;;;;7.60;6.20;;;22.70;92.40;;;;;;5120250;27;20443;-71
2022/06/22 08:10:30;;;;;;;9.03;7.60;;;22.90;92.30;;;;;;5120331;27;20864;-71
2022/06/22 08:13:02;;;;;;;9.70;7.90;;;23.00;91.60;;;;;;5113586;27;20457;-71
2022/06/22 08:15:33;;;;;;;6.80;6.20;;;23.10;92.60;;;;;;5111824;27;20436;-71
2022/06/22 08:18:00;;;;;;;6.03;5.53;;;23.20;92.50;;;;;;5120994;27;20496;-71
2022/06/22 08:20:31;;;;;;;8.83;8.17;;;23.50;91.10;;;;;;5121967;27;20471;-71
2022/06/22 08:22:59;;;;;;;6.43;5.93;;;23.60;91.40;;;;;;5114893;28;20398;-71
2022/06/22 08:25:33;;;;;;;5.80;5.40;;;23.70;91.30;;;;;;5114416;28;20449;-71
2022/06/22 08:28:01;;;;;;;6.43;5.70;;;23.90;90.80;;;;;;5114279;28;20516;-71
2022/06/22 08:30:28;;;;;;;6.40;5.70;;;24.10;90.10;;;;;;5115994;28;20451;-71
2022/06/22 08:33:05;;;;;;;5.93;5.43;;;24.20;88.10;;;;;;5115477;28;21020;-71
2022/06/22 08:35:51;;;;;;;6.13;5.63;;;24.30;86.10;;;;;;5114705;28;20533;-71
2022/06/22 08:38:52;;;;;;;5.27;4.97;;;24.40;86.60;;;;;;5115262;28;20386;-71
2022/06/22 08:41:31;;;;;;;6.40;5.87;;;24.50;86.30;;;;;;5079314;28;20924;-71
2022/06/22 08:44:07;;;;;;;5.60;5.20;;;24.70;86.80;;;;;;5115063;28;20409;-71
2022/06/22 08:46:43;;;;;;;5.67;5.20;;;24.80;87.00;;;;;;5115864;28;20393;-71
2022/06/22 08:49:53;;;;;;;6.53;5.27;;;24.90;86.00;;;;;;5115187;28;20416;-71
2022/06/22 08:52:47;;;;;;;6.73;6.23;;;25.00;85.80;;;;;;5108060;28;20462;-71
2022/06/22 08:55:51;;;;;;;5.23;4.87;;;25.10;82.10;;;;;;5105425;28;20429;-71
2022/06/22 08:58:37;;;;;;;4.90;4.40;;;25.10;82.00;;;;;;5105182;28;20470;-71
2022/06/22 09:01:15;;;;;;;5.20;4.90;;;25.00;81.30;;;;;;5113540;28;20425;-71
2022/06/22 09:03:58;;;;;;;6.43;5.83;;;25.10;82.10;;;;;;5115351;28;20409;-71
2022/06/22 09:07:01;;;;;;;4.77;4.47;;;25.20;81.90;;;;;;5115089;28;20398;-71
2022/06/22 09:10:04;;;;;;;4.63;4.23;;;25.50;82.60;;;;;;5115209;28;20515;-71
2022/06/22 09:12:52;;;;;;;4.53;4.23;;;25.60;76.70;;;;;;5113285;28;20911;-71
2022/06/22 09:15:27;;;;;;;5.77;5.27;;;25.60;79.70;;;;;;5085299;28;20413;-71
2022/06/22 09:17:55;;;;;;;3.87;3.57;;;25.60;81.00;;;;;;5114029;28;20405;-71
2022/06/22 09:20:47;;;;;;;6.23;5.93;;;25.80;79.00;;;;;;5112435;28;20815;-71
2022/06/22 09:23:33;;;;;;;3.90;3.70;;;25.90;76.50;;;;;;5112736;28;20417;-71
2022/06/22 09:26:23;;;;;;;5.57;5.23;;;25.80;72.90;;;;;;5114315;28;20873;-71
2022/06/22 09:28:58;;;;;;;4.00;3.80;;;25.90;72.10;;;;;;5115079;28;20393;-70
2022/06/22 09:31:51;;;;;;;4.50;4.20;;;25.70;69.10;;;;;;5112727;28;20786;-71
2022/06/22 09:34:43;;;;;;;4.23;3.90;;;25.50;73.70;;;;;;5113951;28;20446;-71
2022/06/22 09:37:46;;;;;;;6.77;6.07;;;25.70;76.90;;;;;;5114177;28;20448;-71
2022/06/22 09:40:20;;;;;;;5.30;5.10;;;25.90;72.50;;;;;;5111932;28;20393;-71
2022/06/22 09:43:09;;;;;;;3.70;3.43;;;26.10;76.70;;;;;;5094105;28;20413;-71
2022/06/22 09:45:43;;;;;;;4.77;4.37;;;26.30;74.70;;;;;;5094055;28;20759;-71
2022/06/22 09:48:44;;;;;;;4.40;4.10;;;26.20;70.20;;;;;;5093452;28;20501;-71
2022/06/22 09:51:40;;;;;;;4.60;4.23;;;26.20;70.80;;;;;;5098020;28;20437;-71
2022/06/22 09:56:19;;;;;;;4.20;4.00;;;26.40;68.80;;;;;;5112466;28;20807;-71
2022/06/22 09:57:07;;;;;;;4.30;4.00;;;26.40;73.80;;;;;;5113542;28;20414;-71
2022/06/22 09:59:52;;;;;;;5.50;5.20;;;26.60;72.50;;;;;;5114162;28;20803;-71
2022/06/22 10:02:49;;;;;;;4.40;4.20;;;26.80;68.00;;;;;;5112294;28;20429;-71
2022/06/22 10:05:52;;;;;;;5.53;5.23;;;26.80;66.60;;;;;;5113438;28;20475;-71
2022/06/22 10:08:31;;;;;;;4.40;4.10;;;26.70;66.20;;;;;;5113395;28;20401;-71
2022/06/22 10:11:36;;;;;;;4.97;4.60;;;26.30;65.20;;;;;;5112882;28;20432;-71
2022/06/22 10:14:33;;;;;;;4.90;4.70;;;26.20;70.30;;;;;;5113150;28;20453;-71
2022/06/22 10:17:01;;;;;;;6.20;5.23;;;26.50;73.60;;;;;;5113835;28;20751;-71
2022/06/22 10:19:56;;;;;;;4.30;4.03;;;26.70;71.50;;;;;;5113422;28;20466;-71
2022/06/22 10:22:47;;;;;;;8.43;4.00;;;26.90;69.60;;;;;;5109417;28;20445;-71
2022/06/22 10:25:35;;;;;;;4.33;3.97;;;27.10;70.00;;;;;;5094074;28;20437;-71
2022/06/22 10:28:22;;;;;;;3.83;3.63;;;27.30;69.70;;;;;;5112714;28;20474;-71
2022/06/22 10:31:07;;;;;;;4.90;4.53;;;27.40;68.90;;;;;;5111270;28;20786;-71
2022/06/22 10:33:41;;;;;;;5.50;5.10;;;27.50;68.70;;;;;;5112648;28;20498;-71
2022/06/22 10:36:35;;;;;;;4.47;4.27;;;27.60;67.80;;;;;;5112755;28;20513;-71
2022/06/22 10:39:09;;;;;;;4.43;4.23;;;27.60;64.30;;;;;;5113492;28;20550;-71
2022/06/22 10:45:30;;;;;;;4.60;4.40;;;27.20;65.40;;;;;;5112832;28;20932;-71
2022/06/22 10:47:59;;;;;;;5.20;4.90;;;27.20;67.30;;;;;;5113268;28;20915;-71
2022/06/22 10:50:55;;;;;;;4.93;4.73;;;27.30;66.70;;;;;;5110117;28;20433;-71
2022/06/22 10:53:31;;;;;;;4.60;4.30;;;27.40;67.70;;;;;;5112593;28;20532;-71
2022/06/22 10:56:27;;;;;;;5.97;5.67;;;27.40;64.70;;;;;;5113177;28;20838;-71
2022/06/22 10:59:15;;;;;;;5.07;4.80;;;27.40;66.10;;;;;;5112944;28;20405;-71
2022/06/22 11:02:14;;;;;;;5.03;4.63;;;27.50;66.30;;;;;;5111887;28;20920;-71
2022/06/22 11:05:27;;;;;;;5.40;5.00;;;27.70;64.30;;;;;;5113264;28;20394;-71
2022/06/22 11:08:15;;;;;;;5.20;4.80;;;27.70;63.20;;;;;;5050132;28;20427;-71
2022/06/22 11:10:52;;;;;;;4.73;4.37;;;27.80;64.10;;;;;;5102256;28;20827;-71
2022/06/22 11:13:28;;;;;;;4.47;4.27;;;27.90;66.30;;;;;;5112098;28;20453;-71
2022/06/22 11:16:28;;;;;;;5.30;5.00;;;28.00;61.20;;;;;;5113130;28;20488;-71
2022/06/22 11:19:09;;;;;;;5.83;4.63;;;28.00;63.40;;;;;;5113413;28;20901;-71
2022/06/22 11:22:05;;;;;;;5.60;5.30;;;28.10;65.00;;;;;;5111846;28;20978;-71
2022/06/22 11:24:51;;;;;;;5.00;4.60;;;28.20;63.50;;;;;;5111844;28;20439;-68
2022/06/22 11:31:10;;;;;;;4.60;4.30;;;28.30;61.90;;;;;;5113041;28;20398;-68
2022/06/22 11:33:23;;;;;;;4.50;4.20;;;28.10;59.30;;;;;;5098223;28;20505;-69
2022/06/22 11:36:07;;;;;;;4.83;4.53;;;28.20;61.60;;;;;;5112551;28;20900;-69
2022/06/22 11:38:55;;;;;;;4.80;4.60;;;28.30;65.40;;;;;;5112472;28;20824;-68
2022/06/22 11:41:30;;;;;;;5.07;4.83;;;28.30;63.00;;;;;;5111457;28;20429;-68
2022/06/22 11:43:58;;;;;;;4.50;4.30;;;28.40;60.80;;;;;;5116842;28;20796;-68
2022/06/22 11:46:37;;;;;;;5.07;4.77;;;28.40;61.20;;;;;;5116104;28;20418;-68
2022/06/22 11:49:29;;;;;;;5.23;4.93;;;28.40;59.70;;;;;;5116932;28;20417;-69
2022/06/22 11:52:12;;;;;;;4.73;4.53;;;28.50;60.70;;;;;;5115529;28;20788;-69
2022/06/22 11:54:59;;;;;;;6.30;5.80;;;28.50;59.70;;;;;;5116400;28;20885;-68
2022/06/22 11:57:35;;;;;;;4.13;3.93;;;28.50;55.80;;;;;;5115985;28;20398;-68
2022/06/22 12:00:29;;;;;;;3.53;3.40;;;28.50;58.30;;;;;;5115017;28;20545;-68
2022/06/22 12:03:19;;;;;;;3.70;3.50;;;28.50;53.00;;;;;;5116345;28;20524;-68
2022/06/22 12:06:07;;;;;;;5.73;5.53;;;28.50;53.70;;;;;;5116161;27;20394;-68
2022/06/22 12:09:03;;;;;;;4.20;4.00;;;28.20;55.30;;;;;;5116410;28;20417;-68
2022/06/22 12:11:51;;;;;;;3.57;3.23;;;28.30;57.00;;;;;;5114565;28;20440;-68
2022/06/22 12:17:51;;;;;;;4.07;3.77;;;27.90;56.40;;;;;;5115529;28;20405;-71
2022/06/22 12:20:54;;;;;;;6.30;5.90;;;27.60;54.80;;;;;;5115338;28;20449;-71
2022/06/22 12:23:33;;;;;;;4.57;4.37;;;27.70;59.90;;;;;;5115531;28;20421;-71
2022/06/22 12:26:14;;;;;;;5.33;3.90;;;27.90;58.50;;;;;;5116211;28;20417;-71
2022/06/22 12:29:12;;;;;;;4.43;4.03;;;28.00;58.80;;;;;;5115914;28;20880;-71
2022/06/22 12:31:52;;;;;;;3.70;3.40;;;28.10;61.60;;;;;;5064125;28;20433;-71
2022/06/22 12:34:29;;;;;;;3.73;3.60;;;28.10;56.10;;;;;;5114980;28;20452;-71
2022/06/22 12:37:00;;;;;;;4.50;4.20;;;28.00;58.40;;;;;;5115719;28;20423;-71
2022/06/22 12:39:57;;;;;;;5.60;5.40;;;28.10;58.20;;;;;;5114954;28;20522;-71
2022/06/22 12:42:53;;;;;;;5.67;5.37;;;27.90;54.20;;;;;;5112837;28;20437;-71
2022/06/22 12:45:18;;;;;;;4.60;4.30;;;27.70;55.60;;;;;;5115103;28;20454;-71
2022/06/22 12:48:00;;;;;;;5.40;5.10;;;27.70;58.00;;;;;;5113416;28;20445;-71
2022/06/22 12:50:51;;;;;;;4.40;4.00;;;27.70;56.10;;;;;;5114408;28;20236;-71
2022/06/22 12:53:26;;;;;;;5.00;4.80;;;27.70;56.00;;;;;;5114796;28;20502;-71
2022/06/22 12:56:05;;;;;;;4.53;4.23;;;27.50;56.20;;;;;;5115538;28;20776;-71
2022/06/22 12:58:47;;;;;;;4.40;4.20;;;27.60;58.00;;;;;;5113650;28;20487;-71
2022/06/22 13:01:13;;;;;;;4.03;3.83;;;27.80;58.20;;;;;;5114840;28;20825;-71
2022/06/22 13:03:44;;;;;;;5.30;5.00;;;27.90;59.00;;;;;;5115199;28;20456;-71
2022/06/22 13:06:10;;;;;;;4.33;3.93;;;28.00;59.80;;;;;;5115364;28;20160;-71
2022/06/22 13:08:36;;;;;;;4.60;4.40;;;28.20;59.80;;;;;;5113700;28;20976;-71
2022/06/22 13:11:06;;;;;;;5.10;4.90;;;28.30;58.80;;;;;;5113993;28;20858;-71
2022/06/22 13:13:49;;;;;;;3.83;3.63;;;28.30;58.30;;;;;;5114518;28;20449;-71
2022/06/22 13:16:33;;;;;;;5.30;5.07;;;28.50;59.60;;;;;;5113300;28;20398;-71
2022/06/22 13:19:12;;;;;;;3.77;3.50;;;28.60;58.30;;;;;;5093496;28;20509;-71
2022/06/22 13:21:57;;;;;;;4.97;4.60;;;28.70;56.20;;;;;;5094693;28;20864;-71
2022/06/22 13:24:38;;;;;;;3.37;3.17;;;28.80;56.30;;;;;;5093517;28;20918;-75
2022/06/22 13:27:37;;;;;;;4.37;4.17;;;28.70;51.40;;;;;;5097933;28;20579;-71
2022/06/22 13:30:30;;;;;;;5.67;5.30;;;28.60;56.20;;;;;;5109632;28;20462;-71
2022/06/22 13:33:14;;;;;;;5.77;5.37;;;28.80;58.70;;;;;;5120566;27;20553;-72
2022/06/22 13:35:48;;;;;;;4.23;3.93;;;28.80;57.00;;;;;;5134589;27;20432;-69
2022/06/22 13:38:22;;;;;;;24.53;22.53;;;28.90;58.70;;;;;;5109826;27;20426;-71
2022/06/22 13:41:00;;;;;;;46.20;41.70;;;28.90;54.10;;;;;;5115107;27;20447;-70
2022/06/22 13:43:56;;;;;;;52.97;48.07;;;28.80;53.90;;;;;;5111853;27;20424;-70
2022/06/22 13:46:40;;;;;;;13.70;12.70;;;28.70;54.20;;;;;;5110588;28;20899;-70
2022/06/22 13:49:24;;;;;;;6.40;5.93;;;28.70;54.20;;;;;;5106511;28;20441;-70
2022/06/22 13:51:52;;;;;;;4.87;4.57;;;28.70;56.00;;;;;;5107887;28;20800;-69
2022/06/22 13:54:39;;;;;;;6.50;6.20;;;28.80;56.70;;;;;;5092200;28;20479;-69
2022/06/22 13:57:23;;;;;;;4.10;3.90;;;28.90;54.80;;;;;;5108688;28;20439;-70
2022/06/22 14:00:06;;;;;;;4.00;3.80;;;28.90;54.90;;;;;;5108949;28;20433;-70
2022/06/22 14:03:10;;;;;;;4.20;3.83;;;28.90;52.10;;;;;;5110766;28;20820;-70
2022/06/22 14:05:43;;;;;;;4.63;4.33;;;29.00;53.40;;;;;;5110648;28;20417;-70
2022/06/22 14:08:40;;;;;;;4.00;3.80;;;28.90;52.00;;;;;;5108215;28;20426;-71
2022/06/22 14:11:32;;;;;;;4.23;3.80;;;28.70;52.10;;;;;;5105468;28;20984;-71